Time;durP1;ratioP1;P1;durP2;ratioP2;P2;SDS_P1;SDS_P2;PMS_P1;PMS_P2;Temp;Humidity;BMP_temperature;BMP_pressure;BME280_temperature;BME280_humidity;BME280_pressure;Samples;Min_cycle;Max_cycle;Signal;HPM_P1;HPM_P2
2023/05/25 00:00:11;;;;;;;12.70;4.68;;;7.80;99.90;;;;;;5071989;28;20094;-73
2023/05/25 00:02:38;;;;;;;14.43;5.32;;;7.80;99.90;;;;;;5071362;28;20566;-73
2023/05/25 00:05:05;;;;;;;14.10;4.40;;;7.90;99.90;;;;;;5072161;28;20108;-72
2023/05/25 00:07:30;;;;;;;10.13;4.28;;;8.00;99.90;;;;;;5071583;28;20033;-72
2023/05/25 00:09:56;;;;;;;9.95;4.53;;;7.90;99.90;;;;;;5072084;28;20028;-73
2023/05/25 00:12:22;;;;;;;12.88;4.43;;;7.80;99.90;;;;;;5069637;28;20684;-73
2023/05/25 00:14:47;;;;;;;9.95;4.25;;;7.70;99.90;;;;;;5071832;28;20400;-73
2023/05/25 00:17:14;;;;;;;8.82;4.53;;;7.60;99.90;;;;;;5071829;28;20025;-73
2023/05/25 00:19:41;;;;;;;13.50;4.45;;;7.60;99.90;;;;;;5071572;28;20031;-73
2023/05/25 00:22:08;;;;;;;13.00;5.22;;;7.70;99.90;;;;;;5071561;28;20062;-73
2023/05/25 00:24:33;;;;;;;11.23;4.07;;;7.70;99.90;;;;;;5070845;28;20185;-73
2023/05/25 00:26:59;;;;;;;10.15;4.43;;;7.70;99.90;;;;;;5071797;28;20527;-73
2023/05/25 00:29:25;;;;;;;12.02;4.50;;;7.60;99.90;;;;;;5070796;28;20607;-73
2023/05/25 00:31:52;;;;;;;10.20;4.28;;;7.40;99.90;;;;;;5071669;28;20035;-72
2023/05/25 00:34:18;;;;;;;12.88;4.55;;;7.40;99.90;;;;;;5069677;28;20102;-73
2023/05/25 00:36:47;;;;;;;9.95;4.50;;;7.30;99.90;;;;;;5071659;28;20453;-73
2023/05/25 00:39:14;;;;;;;9.88;4.35;;;7.30;99.90;;;;;;5071539;28;20024;-72
2023/05/25 00:41:43;;;;;;;14.88;5.15;;;7.30;99.90;;;;;;5070732;28;20097;-72
2023/05/25 00:44:09;;;;;;;17.60;4.70;;;7.40;99.90;;;;;;5070103;28;20024;-72
2023/05/25 00:46:41;;;;;;;9.60;4.20;;;7.50;99.90;;;;;;5069346;28;20025;-72
2023/05/25 00:49:07;;;;;;;9.32;4.00;;;7.50;99.90;;;;;;5071507;28;20044;-72
2023/05/25 00:51:35;;;;;;;8.88;4.03;;;7.20;99.90;;;;;;5070366;28;20025;-73
2023/05/25 00:54:01;;;;;;;11.05;4.45;;;7.00;99.90;;;;;;5070955;28;20489;-72
2023/05/25 00:56:31;;;;;;;11.07;4.90;;;6.70;99.90;;;;;;5069088;28;20055;-72
2023/05/25 00:59:02;;;;;;;16.23;5.40;;;6.70;99.90;;;;;;5071428;28;20473;-72
2023/05/25 01:01:32;;;;;;;12.10;4.68;;;6.90;99.90;;;;;;5068520;28;20033;-72
2023/05/25 01:04:00;;;;;;;11.65;5.13;;;6.90;99.90;;;;;;5069797;28;20044;-72
2023/05/25 01:06:32;;;;;;;11.27;4.47;;;6.90;99.90;;;;;;5070377;28;20539;-73
2023/05/25 01:09:07;;;;;;;15.40;4.78;;;6.80;99.90;;;;;;5069751;28;20058;-72
2023/05/25 01:11:40;;;;;;;16.67;5.38;;;6.80;99.90;;;;;;5070282;28;20111;-72
2023/05/25 01:14:07;;;;;;;12.00;4.80;;;6.90;99.90;;;;;;5070850;28;20466;-72
2023/05/25 01:16:34;;;;;;;17.42;5.57;;;7.00;99.90;;;;;;5070165;28;20021;-73
2023/05/25 01:19:01;;;;;;;16.98;4.97;;;7.20;99.90;;;;;;5070907;28;20025;-72
2023/05/25 01:21:32;;;;;;;22.80;5.75;;;7.20;99.90;;;;;;5069966;28;20024;-73
2023/05/25 01:24:07;;;;;;;21.42;5.20;;;7.30;99.90;;;;;;5070936;28;20082;-72
2023/05/25 01:26:38;;;;;;;15.75;5.50;;;7.40;99.90;;;;;;5070080;28;20036;-73
2023/05/25 01:29:05;;;;;;;12.45;4.72;;;7.50;99.90;;;;;;5070753;28;20020;-73
2023/05/25 01:31:32;;;;;;;12.77;4.90;;;7.60;99.90;;;;;;5069779;28;20032;-73
2023/05/25 01:33:58;;;;;;;11.85;4.95;;;7.60;99.90;;;;;;5070648;28;20056;-73
2023/05/25 01:36:24;;;;;;;14.80;5.15;;;7.50;99.90;;;;;;5070022;28;20668;-73
2023/05/25 01:38:50;;;;;;;15.32;4.40;;;7.50;99.90;;;;;;5070804;28;20108;-72
2023/05/25 01:41:16;;;;;;;14.23;5.25;;;7.50;99.90;;;;;;5070526;28;20453;-73
2023/05/25 01:43:41;;;;;;;13.90;5.10;;;7.30;99.90;;;;;;5068236;28;20891;-72
2023/05/25 01:46:36;;;;;;;19.20;5.40;;;7.30;99.90;;;;;;5070341;28;20078;-73
2023/05/25 01:49:23;;;;;;;11.15;4.63;;;7.30;99.90;;;;;;5070361;28;20020;-72
2023/05/25 01:52:07;;;;;;;13.23;4.95;;;7.30;99.90;;;;;;5070191;28;20021;-73
2023/05/25 01:54:40;;;;;;;13.13;5.53;;;7.30;99.90;;;;;;5069464;28;20035;-73
2023/05/25 01:57:09;;;;;;;14.63;5.18;;;7.40;99.90;;;;;;5069723;28;20633;-72
2023/05/25 01:59:36;;;;;;;14.77;5.28;;;7.50;99.90;;;;;;5069225;28;20426;-73
2023/05/25 02:02:04;;;;;;;14.65;5.32;;;7.60;99.90;;;;;;5069844;28;20139;-73
2023/05/25 02:04:30;;;;;;;14.43;5.13;;;7.70;99.90;;;;;;5069022;28;20690;-73
2023/05/25 02:06:56;;;;;;;15.13;5.00;;;7.80;99.90;;;;;;5070004;28;20028;-73
2023/05/25 02:09:21;;;;;;;14.10;5.43;;;7.80;99.90;;;;;;5069569;28;20530;-73
2023/05/25 02:11:48;;;;;;;13.07;5.60;;;7.70;99.90;;;;;;5069162;28;20028;-73
2023/05/25 02:14:15;;;;;;;18.95;5.78;;;7.80;99.90;;;;;;5069335;28;20083;-73
2023/05/25 02:16:41;;;;;;;24.75;6.72;;;7.80;99.90;;;;;;5067571;28;20032;-72
2023/05/25 02:19:07;;;;;;;17.85;5.88;;;7.90;99.90;;;;;;5069793;28;20032;-73
2023/05/25 02:21:35;;;;;;;18.20;5.82;;;7.90;99.90;;;;;;5068697;28;20029;-73
2023/05/25 02:24:00;;;;;;;15.40;5.43;;;8.10;99.90;;;;;;5068213;28;20032;-72
2023/05/25 02:26:26;;;;;;;16.58;5.40;;;8.00;99.90;;;;;;5068833;28;20056;-73
2023/05/25 02:28:52;;;;;;;21.35;6.07;;;8.10;99.90;;;;;;5069534;28;20031;-73
2023/05/25 02:31:17;;;;;;;18.13;5.88;;;8.10;99.90;;;;;;5069092;28;20074;-72
2023/05/25 02:33:43;;;;;;;24.85;5.65;;;8.20;99.90;;;;;;5068666;28;20096;-73
2023/05/25 02:36:08;;;;;;;17.33;6.10;;;8.20;99.90;;;;;;5069344;28;20028;-73
2023/05/25 02:38:34;;;;;;;25.60;5.90;;;8.20;99.90;;;;;;5068736;28;20108;-73
2023/05/25 02:41:00;;;;;;;16.85;5.28;;;8.10;99.90;;;;;;5067941;28;20032;-72
2023/05/25 02:43:25;;;;;;;17.20;5.50;;;7.90;99.90;;;;;;5068369;28;20059;-73
2023/05/25 02:45:51;;;;;;;14.18;5.28;;;7.90;99.90;;;;;;5069257;28;20105;-73
2023/05/25 02:48:16;;;;;;;18.85;6.25;;;7.80;99.90;;;;;;5069202;28;20029;-73
2023/05/25 02:50:42;;;;;;;16.05;5.63;;;7.80;99.90;;;;;;5068401;28;20085;-72
2023/05/25 02:53:08;;;;;;;21.08;6.47;;;7.90;99.90;;;;;;5069388;28;20090;-72
2023/05/25 02:55:33;;;;;;;19.27;6.85;;;8.00;99.90;;;;;;5068235;28;20373;-72
2023/05/25 02:57:59;;;;;;;19.25;6.45;;;8.10;99.90;;;;;;5067772;28;20020;-72
2023/05/25 03:00:25;;;;;;;17.98;6.70;;;8.20;99.90;;;;;;5066845;28;20036;-72
2023/05/25 03:02:51;;;;;;;19.20;7.13;;;8.30;99.90;;;;;;5068634;28;20129;-72
2023/05/25 03:05:17;;;;;;;17.20;6.75;;;8.40;99.90;;;;;;5068931;28;20064;-72
2023/05/25 03:07:42;;;;;;;20.30;6.28;;;8.40;99.90;;;;;;5067794;28;20886;-72
2023/05/25 03:10:10;;;;;;;21.23;6.72;;;8.40;99.90;;;;;;5068049;28;20020;-73
2023/05/25 03:12:35;;;;;;;23.33;7.70;;;8.50;99.90;;;;;;5066754;28;20033;-73
2023/05/25 03:15:01;;;;;;;20.17;6.82;;;8.60;99.90;;;;;;5068917;28;20062;-72
2023/05/25 03:17:26;;;;;;;25.27;6.88;;;8.70;99.90;;;;;;5068358;28;20106;-73
2023/05/25 03:19:52;;;;;;;26.35;6.82;;;8.70;99.90;;;;;;5068575;28;20461;-73
2023/05/25 03:22:18;;;;;;;18.20;6.32;;;8.70;99.90;;;;;;5068819;28;20029;-73
2023/05/25 03:24:43;;;;;;;29.00;7.38;;;8.70;99.90;;;;;;5067775;28;20778;-72
2023/05/25 03:27:09;;;;;;;20.35;7.22;;;8.70;99.90;;;;;;5068679;28;20054;-73
2023/05/25 03:29:34;;;;;;;19.40;7.05;;;8.70;99.90;;;;;;5067841;28;20078;-72
2023/05/25 03:32:00;;;;;;;24.95;7.45;;;8.70;99.90;;;;;;5068327;28;20033;-73
2023/05/25 03:34:27;;;;;;;18.15;6.85;;;8.70;99.90;;;;;;5068413;28;20025;-73
2023/05/25 03:36:53;;;;;;;16.65;7.20;;;8.60;99.90;;;;;;5068118;28;20075;-73
2023/05/25 03:39:21;;;;;;;23.92;7.45;;;8.60;99.90;;;;;;5067247;28;20029;-72
2023/05/25 03:41:47;;;;;;;15.98;6.80;;;8.50;99.90;;;;;;5067842;28;20025;-72
2023/05/25 03:44:12;;;;;;;19.65;6.90;;;8.50;99.90;;;;;;5068561;28;20107;-72
2023/05/25 03:46:38;;;;;;;15.52;7.30;;;8.50;99.90;;;;;;5067747;28;20103;-72
2023/05/25 03:49:04;;;;;;;19.27;6.85;;;8.50;99.90;;;;;;5068470;28;20017;-73
2023/05/25 03:51:30;;;;;;;21.67;6.85;;;8.50;99.90;;;;;;5067744;28;20086;-73
2023/05/25 03:53:56;;;;;;;21.35;7.45;;;8.50;99.90;;;;;;5068491;28;20037;-72
2023/05/25 03:56:22;;;;;;;24.30;8.32;;;8.50;99.90;;;;;;5068581;28;20124;-72
2023/05/25 03:58:47;;;;;;;24.65;7.70;;;8.50;99.90;;;;;;5067681;28;20054;-73
2023/05/25 04:01:13;;;;;;;17.52;7.15;;;8.40;99.90;;;;;;5068460;28;20037;-73
2023/05/25 04:03:39;;;;;;;22.50;7.60;;;8.50;99.90;;;;;;5065909;28;20412;-73
2023/05/25 04:06:05;;;;;;;18.48;7.45;;;8.50;99.90;;;;;;5068389;28;20029;-72
2023/05/25 04:08:30;;;;;;;21.35;6.95;;;8.50;99.90;;;;;;5066355;28;20259;-73
2023/05/25 04:10:56;;;;;;;27.00;7.28;;;8.50;99.90;;;;;;5068303;28;20033;-73
2023/05/25 04:13:22;;;;;;;21.48;7.63;;;8.60;99.90;;;;;;5067936;28;20069;-73
2023/05/25 04:15:49;;;;;;;28.92;8.40;;;8.60;99.90;;;;;;5067460;28;20029;-72
2023/05/25 04:18:15;;;;;;;20.27;6.82;;;8.60;99.90;;;;;;5068136;28;20107;-73
2023/05/25 04:20:40;;;;;;;26.55;7.57;;;8.70;99.90;;;;;;5069489;28;20127;-73
2023/05/25 04:23:06;;;;;;;25.25;7.70;;;8.70;99.90;;;;;;5071836;28;20036;-73
2023/05/25 04:25:31;;;;;;;20.33;7.65;;;8.70;99.90;;;;;;5071141;28;20070;-72
2023/05/25 04:27:57;;;;;;;26.25;9.82;;;8.80;99.90;;;;;;5071834;28;20028;-73
2023/05/25 04:30:23;;;;;;;17.60;7.72;;;8.80;99.90;;;;;;5070232;28;20021;-72
2023/05/25 04:32:49;;;;;;;18.17;8.05;;;8.90;99.90;;;;;;5069447;28;20696;-73
2023/05/25 04:35:15;;;;;;;25.90;7.97;;;9.10;99.90;;;;;;5071647;28;20060;-72
2023/05/25 04:37:41;;;;;;;21.50;8.05;;;9.20;99.90;;;;;;5070736;28;20033;-73
2023/05/25 04:40:12;;;;;;;26.45;8.18;;;9.20;99.90;;;;;;5070044;28;20033;-72
2023/05/25 04:42:39;;;;;;;19.95;7.00;;;9.40;99.90;;;;;;5070838;28;20182;-72
2023/05/25 04:45:08;;;;;;;17.40;7.63;;;9.50;99.90;;;;;;5070020;28;20111;-73
2023/05/25 04:47:33;;;;;;;24.85;7.28;;;9.60;99.90;;;;;;5070458;28;20528;-73
2023/05/25 04:50:00;;;;;;;19.38;7.55;;;9.70;99.90;;;;;;5071394;28;20150;-73
2023/05/25 04:52:25;;;;;;;22.17;7.43;;;9.80;99.90;;;;;;5069795;28;20040;-72
2023/05/25 04:54:52;;;;;;;22.35;7.78;;;9.90;99.90;;;;;;5070234;28;20032;-73
2023/05/25 04:57:18;;;;;;;23.40;7.05;;;10.00;99.90;;;;;;5071197;28;20025;-72
2023/05/25 04:59:43;;;;;;;25.17;7.88;;;10.00;99.90;;;;;;5068885;28;20027;-73
2023/05/25 05:02:09;;;;;;;19.08;7.57;;;9.90;99.90;;;;;;5069412;28;20052;-72
2023/05/25 05:04:36;;;;;;;24.73;7.90;;;9.80;99.90;;;;;;5070410;28;20111;-73
2023/05/25 05:07:02;;;;;;;29.58;8.10;;;9.90;99.90;;;;;;5071058;28;20029;-72
2023/05/25 05:09:28;;;;;;;20.60;7.82;;;10.00;99.90;;;;;;5070931;28;20495;-72
2023/05/25 05:11:53;;;;;;;29.27;7.68;;;10.20;99.90;;;;;;5070057;28;20098;-73
2023/05/25 05:14:19;;;;;;;27.55;7.55;;;10.40;99.90;;;;;;5070836;28;20047;-72
2023/05/25 05:16:46;;;;;;;20.10;7.78;;;10.40;99.90;;;;;;5070147;28;20024;-72
2023/05/25 05:19:12;;;;;;;22.45;7.20;;;10.50;99.90;;;;;;5069058;28;20125;-73
2023/05/25 05:21:38;;;;;;;23.13;7.65;;;10.60;99.90;;;;;;5069758;28;20056;-72
2023/05/25 05:24:03;;;;;;;24.25;9.00;;;10.80;99.90;;;;;;5069308;28;20036;-73
2023/05/25 05:26:29;;;;;;;19.42;7.07;;;10.90;99.90;;;;;;5070474;28;20024;-73
2023/05/25 05:28:55;;;;;;;17.70;7.57;;;10.90;99.90;;;;;;5069898;28;20883;-72
2023/05/25 05:31:21;;;;;;;18.70;7.13;;;11.00;99.90;;;;;;5069855;28;20076;-72
2023/05/25 05:33:47;;;;;;;24.48;7.65;;;11.00;99.90;;;;;;5068171;28;20032;-73
2023/05/25 05:36:13;;;;;;;19.60;7.03;;;11.10;99.90;;;;;;5070469;28;20031;-73
2023/05/25 05:38:40;;;;;;;29.08;7.75;;;11.00;99.90;;;;;;5068097;28;20028;-73
2023/05/25 05:41:12;;;;;;;19.10;7.50;;;10.90;99.90;;;;;;5068936;28;20024;-72
2023/05/25 05:43:38;;;;;;;21.25;7.47;;;11.10;99.90;;;;;;5068241;28;20044;-73
2023/05/25 05:46:07;;;;;;;26.38;7.97;;;11.10;99.90;;;;;;5070264;28;20031;-73
2023/05/25 05:48:32;;;;;;;20.80;7.78;;;11.00;99.90;;;;;;5069848;28;20111;-72
2023/05/25 05:50:58;;;;;;;17.10;7.20;;;10.90;99.90;;;;;;5069839;28;20111;-72
2023/05/25 05:53:24;;;;;;;22.35;7.78;;;10.80;99.90;;;;;;5068560;28;20672;-72
2023/05/25 05:55:53;;;;;;;20.45;7.75;;;10.80;99.90;;;;;;5069323;28;20025;-72
2023/05/25 05:58:18;;;;;;;18.48;7.45;;;11.00;99.90;;;;;;5070010;28;20049;-72
2023/05/25 06:00:44;;;;;;;23.23;8.15;;;10.80;99.90;;;;;;5069499;28;20127;-72
2023/05/25 06:03:10;;;;;;;20.73;7.20;;;10.70;99.90;;;;;;5069892;28;20062;-72
2023/05/25 06:05:36;;;;;;;21.95;8.32;;;10.70;99.90;;;;;;5069341;28;20039;-72
2023/05/25 06:08:02;;;;;;;18.92;7.90;;;10.70;99.90;;;;;;5069209;28;20032;-72
2023/05/25 06:10:27;;;;;;;21.50;8.52;;;10.70;99.90;;;;;;5069724;28;20033;-72
2023/05/25 06:12:53;;;;;;;35.65;9.57;;;10.70;99.90;;;;;;5067329;28;20036;-72
2023/05/25 06:15:18;;;;;;;27.95;9.15;;;10.70;99.90;;;;;;5069607;28;20026;-72
2023/05/25 06:17:45;;;;;;;21.85;8.45;;;10.70;99.90;;;;;;5068583;28;20450;-72
2023/05/25 06:20:10;;;;;;;22.50;9.13;;;10.80;99.90;;;;;;5069538;28;20031;-72
2023/05/25 06:22:36;;;;;;;26.73;8.35;;;10.90;99.90;;;;;;5069156;28;20024;-73
2023/05/25 06:25:02;;;;;;;26.33;8.85;;;10.80;99.90;;;;;;5069048;28;20826;-72
2023/05/25 06:27:27;;;;;;;20.55;8.55;;;10.80;99.90;;;;;;5069053;28;20102;-72
2023/05/25 06:29:53;;;;;;;20.08;8.18;;;10.90;99.90;;;;;;5068390;28;20047;-72
2023/05/25 06:32:19;;;;;;;28.30;8.90;;;10.90;99.90;;;;;;5069196;28;20075;-72
2023/05/25 06:34:44;;;;;;;26.70;8.55;;;10.90;99.90;;;;;;5068296;28;20028;-72
2023/05/25 06:37:10;;;;;;;20.33;8.63;;;11.00;99.90;;;;;;5069025;28;20108;-72
2023/05/25 06:39:36;;;;;;;27.05;8.55;;;11.10;99.90;;;;;;5069170;28;20020;-72
2023/05/25 06:42:01;;;;;;;25.40;8.82;;;11.00;99.90;;;;;;5068690;28;20032;-72
2023/05/25 06:44:27;;;;;;;27.42;8.27;;;11.00;99.90;;;;;;5069087;28;20040;-72
2023/05/25 06:46:53;;;;;;;26.50;8.70;;;11.10;99.90;;;;;;5068045;28;20385;-72
2023/05/25 06:49:18;;;;;;;23.08;8.80;;;11.20;99.90;;;;;;5068886;28;20036;-72
2023/05/25 06:51:44;;;;;;;24.92;8.65;;;11.30;99.90;;;;;;5068238;28;20039;-72
2023/05/25 06:54:12;;;;;;;21.75;7.78;;;11.40;99.90;;;;;;5068957;28;20032;-72
2023/05/25 06:56:38;;;;;;;26.48;8.05;;;11.50;99.90;;;;;;5068613;28;20051;-72
2023/05/25 06:59:03;;;;;;;25.42;8.15;;;11.50;99.90;;;;;;5068723;28;20028;-72
2023/05/25 07:01:29;;;;;;;24.27;8.60;;;11.50;99.90;;;;;;5068659;28;20373;-72
2023/05/25 07:03:55;;;;;;;23.52;8.98;;;11.60;99.90;;;;;;5068220;28;20492;-72
2023/05/25 07:06:20;;;;;;;20.40;7.72;;;11.70;99.90;;;;;;5068772;28;20032;-72
2023/05/25 07:08:46;;;;;;;26.83;9.20;;;11.70;99.90;;;;;;5067974;28;20028;-72
2023/05/25 07:11:13;;;;;;;27.33;8.55;;;11.70;99.90;;;;;;5068786;28;20516;-72
2023/05/25 07:13:39;;;;;;;28.80;9.02;;;11.70;99.90;;;;;;5068563;28;20024;-73
2023/05/25 07:16:05;;;;;;;27.17;8.95;;;11.80;99.90;;;;;;5068297;28;20029;-72
2023/05/25 07:18:30;;;;;;;22.73;9.05;;;12.00;99.90;;;;;;5068484;28;20495;-72
2023/05/25 07:20:56;;;;;;;20.10;8.20;;;12.20;99.90;;;;;;5067952;28;20376;-73
2023/05/25 07:23:21;;;;;;;21.27;7.95;;;12.40;99.90;;;;;;5067165;28;20131;-72
2023/05/25 07:25:47;;;;;;;30.70;9.50;;;12.60;99.90;;;;;;5067781;28;20039;-72
2023/05/25 07:28:13;;;;;;;22.38;7.95;;;12.90;99.90;;;;;;5068556;28;20033;-72
2023/05/25 07:30:39;;;;;;;29.42;8.68;;;13.00;99.90;;;;;;5068666;28;20392;-72
2023/05/25 07:33:05;;;;;;;26.50;8.60;;;12.90;99.90;;;;;;5067968;28;20029;-72
2023/05/25 07:35:33;;;;;;;21.42;8.38;;;13.10;99.90;;;;;;5068675;28;20031;-72
2023/05/25 07:37:59;;;;;;;20.35;8.43;;;13.30;99.90;;;;;;5067776;28;20020;-72
2023/05/25 07:40:25;;;;;;;28.92;8.80;;;13.10;99.90;;;;;;5067087;28;20067;-72
2023/05/25 07:42:51;;;;;;;23.15;8.18;;;13.20;99.90;;;;;;5067795;28;20081;-73
2023/05/25 07:45:17;;;;;;;23.92;8.60;;;13.40;99.90;;;;;;5068359;28;20080;-72
2023/05/25 07:47:43;;;;;;;21.85;8.30;;;13.50;99.90;;;;;;5068247;28;20491;-73
2023/05/25 07:50:09;;;;;;;19.73;8.50;;;13.60;99.90;;;;;;5068229;28;20028;-72
2023/05/25 07:52:37;;;;;;;27.05;8.88;;;13.80;99.90;;;;;;5067114;28;20127;-72
2023/05/25 07:55:03;;;;;;;25.27;8.13;;;14.10;99.90;;;;;;5068693;28;20024;-72
2023/05/25 07:57:28;;;;;;;29.40;8.75;;;14.40;99.90;;;;;;5072352;28;20073;-72
2023/05/25 07:59:54;;;;;;;19.58;7.90;;;14.40;99.90;;;;;;5071683;28;20033;-72
2023/05/25 08:02:20;;;;;;;22.15;8.45;;;14.50;99.90;;;;;;5071949;28;20060;-72
2023/05/25 08:04:46;;;;;;;27.83;8.40;;;14.60;99.90;;;;;;5071098;28;20029;-73
2023/05/25 08:07:11;;;;;;;26.73;8.85;;;14.70;99.90;;;;;;5071901;28;20558;-72
2023/05/25 08:09:37;;;;;;;22.40;8.75;;;15.00;99.90;;;;;;5071807;28;20028;-72
2023/05/25 08:12:03;;;;;;;25.83;8.63;;;15.20;99.90;;;;;;5070983;28;20083;-72
2023/05/25 08:14:28;;;;;;;22.63;9.60;;;15.20;99.90;;;;;;5071973;28;20465;-72
2023/05/25 08:16:54;;;;;;;22.35;8.43;;;15.20;99.90;;;;;;5071149;28;20016;-73
2023/05/25 08:19:19;;;;;;;20.70;8.40;;;15.20;99.90;;;;;;5071878;28;20029;-72
2023/05/25 08:21:45;;;;;;;23.90;9.15;;;15.50;99.90;;;;;;5071245;28;20046;-72
2023/05/25 08:24:11;;;;;;;19.88;8.90;;;15.60;99.90;;;;;;5071405;28;20094;-72
2023/05/25 08:26:37;;;;;;;32.88;9.23;;;15.50;99.90;;;;;;5070195;28;20036;-72
2023/05/25 08:29:03;;;;;;;22.92;8.43;;;15.40;99.90;;;;;;5069412;28;20033;-73
2023/05/25 08:31:32;;;;;;;18.13;8.20;;;15.60;99.90;;;;;;5071676;28;20051;-72
2023/05/25 08:33:59;;;;;;;23.45;8.80;;;15.90;99.90;;;;;;5070749;28;20051;-72
2023/05/25 08:36:26;;;;;;;17.42;8.25;;;15.80;99.90;;;;;;5071488;28;20025;-72
2023/05/25 08:38:52;;;;;;;24.70;9.75;;;16.00;99.90;;;;;;5070607;28;20543;-72
2023/05/25 08:41:20;;;;;;;23.58;9.43;;;16.20;99.90;;;;;;5071256;28;20024;-72
2023/05/25 08:43:45;;;;;;;20.48;8.68;;;16.50;99.90;;;;;;5071016;28;20490;-73
2023/05/25 08:46:13;;;;;;;28.85;9.35;;;16.70;99.90;;;;;;5071414;28;20033;-73
2023/05/25 08:48:39;;;;;;;19.13;8.68;;;17.00;99.90;;;;;;5071352;28;20525;-72
2023/05/25 08:51:09;;;;;;;21.75;8.65;;;17.10;99.90;;;;;;5070556;28;20179;-73
2023/05/25 08:53:37;;;;;;;23.30;9.93;;;17.40;99.90;;;;;;5069729;28;20033;-73
2023/05/25 08:56:32;;;;;;;30.27;9.68;;;17.60;99.90;;;;;;5069001;28;20036;-72
2023/05/25 08:59:05;;;;;;;19.85;8.80;;;17.30;99.90;;;;;;5068977;28;20033;-73
2023/05/25 09:01:37;;;;;;;21.67;9.98;;;17.20;99.90;;;;;;5070997;28;20139;-72
2023/05/25 09:04:03;;;;;;;22.50;9.75;;;17.40;99.90;;;;;;5070438;28;20075;-72
2023/05/25 09:06:29;;;;;;;23.02;9.13;;;17.50;99.90;;;;;;5070021;28;20052;-72
2023/05/25 09:08:55;;;;;;;20.75;8.32;;;17.60;99.90;;;;;;5068701;28;20024;-73
2023/05/25 09:11:21;;;;;;;19.10;8.75;;;17.90;99.90;;;;;;5070841;28;20037;-73
2023/05/25 09:13:47;;;;;;;20.80;8.90;;;18.20;99.90;;;;;;5068949;28;20109;-73
2023/05/25 09:16:15;;;;;;;19.67;8.20;;;18.40;99.90;;;;;;5070479;28;20094;-73
2023/05/25 09:18:40;;;;;;;18.92;8.45;;;18.40;99.90;;;;;;5070530;28;20436;-72
2023/05/25 09:21:06;;;;;;;22.17;8.40;;;18.30;99.90;;;;;;5069953;28;20028;-73
2023/05/25 09:23:34;;;;;;;27.52;9.18;;;18.40;99.90;;;;;;5069296;28;20044;-72
2023/05/25 09:26:01;;;;;;;22.00;9.82;;;18.50;99.90;;;;;;5069715;28;20027;-72
2023/05/25 09:28:26;;;;;;;28.10;9.68;;;18.40;99.90;;;;;;5069209;28;20116;-72
2023/05/25 09:30:52;;;;;;;17.88;9.13;;;18.30;99.90;;;;;;5069644;28;20492;-72
2023/05/25 09:33:18;;;;;;;19.13;9.68;;;18.10;99.90;;;;;;5070419;28;20044;-72
2023/05/25 09:35:45;;;;;;;25.20;9.90;;;18.10;99.90;;;;;;5070864;28;20082;-72
2023/05/25 09:38:15;;;;;;;23.48;9.43;;;18.10;99.90;;;;;;5069309;28;20440;-72
2023/05/25 09:40:41;;;;;;;20.90;9.47;;;18.30;99.90;;;;;;5069053;28;20538;-72
2023/05/25 09:43:06;;;;;;;28.67;10.07;;;18.40;99.90;;;;;;5069563;28;21183;-72
2023/05/25 09:45:34;;;;;;;27.02;9.82;;;18.40;99.90;;;;;;5070329;28;20056;-72
2023/05/25 09:48:00;;;;;;;24.52;8.85;;;18.40;99.90;;;;;;5069291;28;20123;-72
2023/05/25 09:50:27;;;;;;;27.73;10.85;;;18.50;99.90;;;;;;5070078;28;20113;-72
2023/05/25 09:52:58;;;;;;;20.80;9.60;;;18.30;99.90;;;;;;5069264;28;20354;-72
2023/05/25 09:55:25;;;;;;;19.77;9.40;;;18.50;99.90;;;;;;5070173;28;20162;-71
2023/05/25 09:57:54;;;;;;;24.48;10.15;;;18.70;99.90;;;;;;5069575;28;20108;-72
2023/05/25 10:00:22;;;;;;;21.58;9.27;;;19.00;99.90;;;;;;5069937;28;20133;-72
2023/05/25 10:02:48;;;;;;;19.05;9.40;;;19.00;99.90;;;;;;5067878;28;20056;-72
2023/05/25 10:05:14;;;;;;;25.67;9.00;;;19.20;99.90;;;;;;5069948;28;20023;-72
2023/05/25 10:07:42;;;;;;;24.67;9.68;;;19.50;99.90;;;;;;5069641;28;20059;-72
2023/05/25 10:10:11;;;;;;;18.90;8.65;;;19.70;99.90;;;;;;5068757;28;20204;-72
2023/05/25 10:12:41;;;;;;;20.55;9.30;;;19.80;99.90;;;;;;5069365;28;20116;-72
2023/05/25 10:15:10;;;;;;;20.13;8.83;;;20.10;99.90;;;;;;5068813;28;20032;-72
2023/05/25 10:17:57;;;;;;;19.60;8.90;;;20.20;99.90;;;;;;5069240;28;20259;-72
2023/05/25 10:20:24;;;;;;;20.67;9.10;;;20.20;99.90;;;;;;5068896;28;20037;-72
2023/05/25 10:23:03;;;;;;;21.23;8.77;;;20.30;99.90;;;;;;5069363;28;20028;-73
2023/05/25 10:25:37;;;;;;;21.35;8.68;;;20.40;99.90;;;;;;5069823;28;20033;-72
2023/05/25 10:28:27;;;;;;;18.40;9.05;;;20.10;99.90;;;;;;5068352;28;20393;-72
2023/05/25 10:30:54;;;;;;;17.33;8.57;;;20.20;99.90;;;;;;5069058;28;20035;-72
2023/05/25 10:33:20;;;;;;;18.15;9.43;;;20.00;99.90;;;;;;5069363;28;20086;-71
2023/05/25 10:35:48;;;;;;;16.70;7.85;;;20.00;99.90;;;;;;5069396;28;20024;-72
2023/05/25 10:38:14;;;;;;;23.48;8.52;;;20.10;99.90;;;;;;5068616;28;20020;-72
2023/05/25 10:40:40;;;;;;;16.45;8.02;;;20.50;99.90;;;;;;5067747;28;20055;-72
2023/05/25 10:43:06;;;;;;;18.30;8.38;;;20.40;99.90;;;;;;5068465;28;20590;-73
2023/05/25 10:45:33;;;;;;;16.88;8.60;;;20.40;99.90;;;;;;5069141;28;20032;-72
2023/05/25 10:47:58;;;;;;;16.90;8.45;;;20.30;99.90;;;;;;5068403;28;20074;-70
2023/05/25 10:50:25;;;;;;;17.15;8.48;;;20.40;99.90;;;;;;5069001;28;20028;-71
2023/05/25 10:53:01;;;;;;;21.27;8.65;;;20.30;99.90;;;;;;5068899;28;20076;-72
2023/05/25 10:55:30;;;;;;;18.65;9.27;;;20.20;99.90;;;;;;5067529;28;20036;-71
2023/05/25 10:58:13;;;;;;;23.83;9.82;;;20.00;99.90;;;;;;5068202;28;20172;-72
2023/05/25 11:00:39;;;;;;;20.30;9.90;;;19.80;99.90;;;;;;5069131;28;20487;-68
2023/05/25 11:03:08;;;;;;;21.15;8.38;;;19.70;99.90;;;;;;5067734;28;20057;-72
2023/05/25 11:05:38;;;;;;;22.42;8.98;;;19.70;99.90;;;;;;5069216;28;20055;-72
2023/05/25 11:08:06;;;;;;;16.93;7.87;;;19.90;99.90;;;;;;5066674;28;20039;-72
2023/05/25 11:10:47;;;;;;;21.02;9.00;;;19.90;99.90;;;;;;5069021;28;20028;-70
2023/05/25 11:13:34;;;;;;;16.95;8.35;;;20.00;99.90;;;;;;5066574;28;20047;-71
2023/05/25 11:16:17;;;;;;;17.88;8.10;;;20.00;99.90;;;;;;5067936;28;20037;-72
2023/05/25 11:18:45;;;;;;;14.45;7.05;;;20.30;99.90;;;;;;5068477;28;20054;-72
2023/05/25 11:21:21;;;;;;;18.33;8.05;;;21.10;99.90;;;;;;5067810;28;20025;-72
2023/05/25 11:24:09;;;;;;;14.38;7.32;;;21.20;99.90;;;;;;5068758;28;20428;-72
2023/05/25 11:26:35;;;;;;;16.80;8.00;;;21.30;99.90;;;;;;5067201;28;20437;-72
2023/05/25 11:29:11;;;;;;;15.40;7.97;;;20.90;99.90;;;;;;5067448;28;20060;-72
2023/05/25 11:31:38;;;;;;;17.23;7.93;;;21.10;99.90;;;;;;5068544;28;20032;-72
2023/05/25 11:34:04;;;;;;;18.13;8.48;;;21.20;99.90;;;;;;5068075;28;20081;-72
2023/05/25 11:36:34;;;;;;;17.10;7.20;;;20.80;99.90;;;;;;5068665;28;20093;-71
2023/05/25 11:39:01;;;;;;;;;;;20.50;99.90;;;;;;5068268;28;20560;-72
2023/05/25 11:41:31;;;;;;;23.63;8.50;;;20.60;99.90;;;;;;5068468;28;19905;-72
2023/05/25 11:44:05;;;;;;;24.10;8.30;;;20.60;99.90;;;;;;5068009;28;20037;-73
2023/05/25 11:46:32;;;;;;;17.55;7.90;;;20.60;99.90;;;;;;5068453;28;20036;-72
2023/05/25 11:48:58;;;;;;;22.10;8.35;;;20.70;99.90;;;;;;5067689;28;20406;-72
2023/05/25 11:51:26;;;;;;;22.80;7.55;;;20.50;99.90;;;;;;5066916;28;20067;-72
2023/05/25 11:53:52;;;;;;;20.45;8.45;;;20.90;99.90;;;;;;5068223;28;20052;-72
2023/05/25 11:56:18;;;;;;;21.88;7.93;;;21.00;99.90;;;;;;5067559;28;20029;-72
2023/05/25 11:58:46;;;;;;;13.30;7.25;;;21.50;99.90;;;;;;5068302;28;20025;-71
2023/05/25 12:01:22;;;;;;;20.67;8.50;;;21.70;99.90;;;;;;5067641;28;20032;-72
2023/05/25 12:04:00;;;;;;;15.30;8.02;;;21.50;99.90;;;;;;5068271;28;20060;-72
2023/05/25 12:06:35;;;;;;;20.58;8.27;;;21.10;99.90;;;;;;5068160;28;20028;-72
2023/05/25 12:09:01;;;;;;;18.88;8.40;;;21.20;99.90;;;;;;5067472;28;20101;-72
2023/05/25 12:11:31;;;;;;;17.25;8.32;;;21.00;99.90;;;;;;5068043;28;20067;-72
2023/05/25 12:13:58;;;;;;;20.73;7.82;;;20.80;99.90;;;;;;5067598;28;20036;-72
2023/05/25 12:16:24;;;;;;;17.50;7.55;;;20.70;99.90;;;;;;5067860;28;20028;-72
2023/05/25 12:18:51;;;;;;;19.23;7.60;;;20.60;99.90;;;;;;5068090;28;20420;-72
2023/05/25 12:21:18;;;;;;;16.38;6.90;;;20.60;99.90;;;;;;5067243;28;20024;-72
2023/05/25 12:23:44;;;;;;;18.42;8.10;;;20.50;99.90;;;;;;5068081;28;20032;-72
2023/05/25 12:26:15;;;;;;;19.13;7.70;;;20.60;99.90;;;;;;5067390;28;20028;-72
2023/05/25 12:29:00;;;;;;;17.60;7.80;;;20.80;99.90;;;;;;5068096;28;20036;-71
2023/05/25 12:31:37;;;;;;;14.63;7.43;;;21.10;99.90;;;;;;5068029;28;20051;-72
2023/05/25 12:34:08;;;;;;;14.10;7.07;;;21.40;99.90;;;;;;5065779;28;20503;-72
2023/05/25 12:36:39;;;;;;;14.50;7.60;;;21.80;99.90;;;;;;5067925;28;20029;-72
2023/05/25 12:39:06;;;;;;;15.52;7.18;;;22.00;99.90;;;;;;5067130;28;20029;-72
2023/05/25 12:41:42;;;;;;;17.60;7.82;;;22.30;99.90;;;;;;5069621;28;20029;-72